Redding Ridge, Connecticut
Current Conditions -  °F | °C
As of 12:53 PM on Sunday 25 Jan 2015 (Local Time) from KDXR Reporting Station
Clear Clear  
Wind Chill: 27°   Ceiling: Unl
Heat Index: 36°   Visibility: 10mi
Dew Point: 12°   Wind: 14mph
Humidity: 37%   Direction: 300°WNW
Pressure: 29.75"   Gusts: 22mph
Location:  41.31°N, 73.35°W
Report Text: KDXR 251753Z 30012G19KT 10SM CLR 02/M11 A2975 RMK AO2 SLP075 T00221111 10033 20006 53021
Loading
Personal Weather Stations






























Interactive Weather Map New forecast layout! Learn more

10-Day Weather Forecast

Advertisements
Track Severe Weather on mobile